createdAt,value
2022-10-02T00:04:20.706Z,4.43
2022-10-02T00:09:08.296Z,4.50
2022-10-02T00:13:59.396Z,4.60
2022-10-02T00:18:45.485Z,4.28
2022-10-02T00:23:36.556Z,4.22
2022-10-02T00:28:29.904Z,4.05
2022-10-02T00:33:25.384Z,3.85
2022-10-02T00:38:21.971Z,4.75
2022-10-02T00:43:16.197Z,4.47
2022-10-02T00:48:11.247Z,4.15
2022-10-02T00:53:11.852Z,3.72
2022-10-02T00:58:11.640Z,3.75
2022-10-02T01:03:13.575Z,3.95
2022-10-02T01:12:47.615Z,3.95
2022-10-02T01:17:36.227Z,4.05
2022-10-02T01:22:25.724Z,4.25
2022-10-02T01:27:13.704Z,4.40
2022-10-02T01:31:59.495Z,5.40
2022-10-02T01:36:44.886Z,4.95
2022-10-02T01:41:30.339Z,4.15
2022-10-02T01:46:32.731Z,4.00
2022-10-02T01:51:56.578Z,4.65
2022-10-02T01:56:52.110Z,4.82
2022-10-02T02:01:50.553Z,4.53
2022-10-02T02:06:45.315Z,3.85
2022-10-02T02:11:31.529Z,4.57
2022-10-02T02:16:28.149Z,4.60
2022-10-02T02:21:22.233Z,4.03
2022-10-02T02:26:12.618Z,4.03
2022-10-02T02:30:58.838Z,3.83
2022-10-02T02:35:48.280Z,4.05
2022-10-02T02:40:41.838Z,5.60
2022-10-02T02:45:30.240Z,5.38
2022-10-02T02:50:20.019Z,3.75
2022-10-02T02:55:09.409Z,3.78
2022-10-02T03:00:02.501Z,3.90
2022-10-02T03:04:50.265Z,3.45
2022-10-02T03:09:38.040Z,4.03
2022-10-02T03:14:36.788Z,3.97
2022-10-02T03:19:36.888Z,3.95
2022-10-02T03:24:29.826Z,4.00
2022-10-02T03:29:20.915Z,3.72
2022-10-02T03:34:07.556Z,3.80
2022-10-02T03:39:23.068Z,3.75
2022-10-02T03:44:02.830Z,4.28
2022-10-02T03:48:47.884Z,3.63
2022-10-02T03:53:35.576Z,3.53
2022-10-02T03:58:23.563Z,3.42
2022-10-02T04:03:14.779Z,3.65
2022-10-02T04:08:05.237Z,3.55
2022-10-02T04:12:55.030Z,3.50
2022-10-02T04:17:47.052Z,3.72
2022-10-02T04:22:37.794Z,3.72
2022-10-02T04:27:32.526Z,3.20
2022-10-02T04:32:20.341Z,3.15
2022-10-02T04:37:25.569Z,3.15
2022-10-02T04:42:25.576Z,3.60
2022-10-02T04:47:27.504Z,3.40
2022-10-02T04:52:42.594Z,3.03
2022-10-02T04:57:42.469Z,3.22
2022-10-02T05:02:40.844Z,3.42
2022-10-02T05:07:48.920Z,3.40
2022-10-02T05:12:47.898Z,3.25
2022-10-02T05:17:49.832Z,3.38
2022-10-02T05:23:03.915Z,3.70
2022-10-02T05:28:00.877Z,3.17
2022-10-02T05:33:04.062Z,3.22
2022-10-02T05:38:02.718Z,3.33
2022-10-02T05:42:58.014Z,3.28
2022-10-02T05:47:46.694Z,3.22
2022-10-02T05:52:39.258Z,3.30
2022-10-02T05:57:35.367Z,3.08
2022-10-02T06:02:27.126Z,3.47
2022-10-02T06:07:19.282Z,3.83
2022-10-02T06:12:09.180Z,3.38
2022-10-02T06:17:01.563Z,3.42
2022-10-02T06:21:52.886Z,3.42
2022-10-02T06:26:45.051Z,4.90
2022-10-02T06:36:55.521Z,3.60
2022-10-02T06:41:52.121Z,4.47
2022-10-02T06:46:50.612Z,3.33
2022-10-02T06:51:53.242Z,3.38
2022-10-02T06:56:52.710Z,3.45
2022-10-02T07:01:55.003Z,4.00
2022-10-02T07:06:57.180Z,4.53
2022-10-02T07:11:51.149Z,4.50
2022-10-02T07:16:53.904Z,6.15
2022-10-02T07:21:47.848Z,6.90
2022-10-02T07:26:52.207Z,8.57
2022-10-02T07:31:49.337Z,11.93
2022-10-02T07:36:48.763Z,3.47
2022-10-02T07:42:03.156Z,3.97
2022-10-02T07:46:58.068Z,3.55
2022-10-02T07:51:51.148Z,3.17
2022-10-02T07:56:39.261Z,3.25
2022-10-02T08:01:29.721Z,3.15
2022-10-02T08:06:16.127Z,3.53
2022-10-02T08:11:06.175Z,3.83
2022-10-02T08:15:56.626Z,4.32
2022-10-02T08:20:47.014Z,3.88
2022-10-02T08:25:39.732Z,4.18
2022-10-02T08:30:24.726Z,4.43
2022-10-02T08:35:15.871Z,3.92
2022-10-02T08:40:35.344Z,2.95
2022-10-02T08:45:53.063Z,2.88
2022-10-02T08:51:08.070Z,3.13
2022-10-02T08:56:08.041Z,3.20
2022-10-02T09:01:10.777Z,2.80
2022-10-02T09:06:20.009Z,2.70
2022-10-02T09:11:46.105Z,2.30
2022-10-02T09:16:39.897Z,2.17
2022-10-02T09:21:56.331Z,2.08
2022-10-02T09:27:05.486Z,2.00
2022-10-02T09:32:23.657Z,2.28
2022-10-02T09:37:47.027Z,1.75
2022-10-02T09:43:05.026Z,1.85
2022-10-02T09:48:30.503Z,1.70
2022-10-02T09:53:41.292Z,2.03
2022-10-02T09:58:58.149Z,2.78
2022-10-02T10:04:09.567Z,1.80
2022-10-02T10:09:39.404Z,1.83
2022-10-02T10:14:59.513Z,1.75
2022-10-02T10:20:26.251Z,2.50
2022-10-02T10:25:53.204Z,3.33
2022-10-02T10:31:21.199Z,1.48
2022-10-02T10:36:47.277Z,1.70
2022-10-02T10:42:01.338Z,1.60
2022-10-02T10:47:24.576Z,1.60
2022-10-02T10:52:19.604Z,1.75
2022-10-02T10:57:15.095Z,1.50
2022-10-02T11:02:21.535Z,1.60
2022-10-02T11:07:18.771Z,1.50
2022-10-02T11:12:39.306Z,2.10
2022-10-02T11:17:47.860Z,1.13
2022-10-02T11:23:10.431Z,1.58
2022-10-02T11:28:25.764Z,1.95
2022-10-02T11:33:50.815Z,1.50
2022-10-02T11:39:18.235Z,1.60
2022-10-02T11:44:17.748Z,1.73
2022-10-02T11:49:30.941Z,1.70
2022-10-02T11:54:28.636Z,1.70
2022-10-02T11:59:37.315Z,1.70
2022-10-02T12:04:36.998Z,1.60
2022-10-02T12:09:31.927Z,1.70
2022-10-02T12:14:31.412Z,1.70
2022-10-02T12:20:01.257Z,1.90
2022-10-02T12:25:13.177Z,1.70
2022-10-02T12:30:09.314Z,1.42
2022-10-02T12:35:07.054Z,1.65
2022-10-02T12:40:02.283Z,6.68
2022-10-02T12:45:21.782Z,1.75
2022-10-02T12:50:18.234Z,1.80
2022-10-02T12:55:33.475Z,1.50
2022-10-02T13:00:23.058Z,1.50
2022-10-02T13:05:46.770Z,1.65
2022-10-02T13:10:40.704Z,1.67
2022-10-02T13:15:40.820Z,1.88
2022-10-02T13:20:40.989Z,1.73
2022-10-02T13:25:45.568Z,1.80
2022-10-02T13:30:43.903Z,1.80
2022-10-02T13:35:51.645Z,1.90
2022-10-02T13:40:44.278Z,2.10
2022-10-02T13:45:41.728Z,1.83
2022-10-02T13:50:45.357Z,1.83
2022-10-02T13:55:33.503Z,2.22
2022-10-02T14:00:44.721Z,2.40
2022-10-02T14:05:44.497Z,3.15
2022-10-02T14:10:43.858Z,1.90
2022-10-02T14:15:39.224Z,1.77
2022-10-02T14:20:44.266Z,1.90
2022-10-02T14:25:42.638Z,1.90
2022-10-02T14:30:35.097Z,1.80
2022-10-02T14:35:35.795Z,1.98
2022-10-02T14:40:24.289Z,2.10
2022-10-02T14:45:33.750Z,2.20
2022-10-02T14:50:58.026Z,1.70
2022-10-02T14:56:03.899Z,1.70
2022-10-02T15:01:05.878Z,1.75
2022-10-02T15:06:05.577Z,3.47
2022-10-02T15:10:55.249Z,2.20
2022-10-02T15:15:44.301Z,2.28
2022-10-02T15:20:40.700Z,2.33
2022-10-02T15:25:38.375Z,3.13
2022-10-02T15:30:27.557Z,2.58
2022-10-02T15:35:25.387Z,2.28
2022-10-02T15:40:21.845Z,2.30
2022-10-02T15:45:17.461Z,2.88
2022-10-02T15:50:22.190Z,2.80
2022-10-02T15:55:21.560Z,2.80
2022-10-02T16:00:17.824Z,2.80
2022-10-02T16:05:23.859Z,2.90
2022-10-02T16:10:23.518Z,3.40
2022-10-02T16:15:20.838Z,2.55
2022-10-02T16:20:37.246Z,2.63
2022-10-02T16:25:42.120Z,2.50
2022-10-02T16:30:31.110Z,2.40
2022-10-02T16:35:28.529Z,2.40
2022-10-02T16:40:29.680Z,2.60
2022-10-02T16:45:39.052Z,2.30
2022-10-02T16:50:28.772Z,2.08
2022-10-02T16:55:28.345Z,2.22
2022-10-02T17:00:19.309Z,1.85
2022-10-02T17:05:14.168Z,2.33
2022-10-02T17:10:07.759Z,2.03
2022-10-02T17:15:01.226Z,2.97
2022-10-02T17:19:53.128Z,2.00
2022-10-02T17:24:45.564Z,2.58
2022-10-02T17:29:39.114Z,2.20
2022-10-02T17:34:32.996Z,2.50
2022-10-02T17:39:43.488Z,2.17
2022-10-02T17:44:46.015Z,2.25
2022-10-02T17:49:43.475Z,2.53
2022-10-02T17:55:05.486Z,2.22
2022-10-02T18:00:06.089Z,2.58
2022-10-02T18:05:14.393Z,2.47
2022-10-02T18:10:13.504Z,2.10
2022-10-02T18:15:19.078Z,2.22
2022-10-02T18:20:19.949Z,2.85
2022-10-02T18:25:27.647Z,2.38
2022-10-02T18:30:20.881Z,2.67
2022-10-02T18:35:28.596Z,2.75
2022-10-02T18:40:25.144Z,2.80
2022-10-02T18:45:27.397Z,2.67
2022-10-02T18:50:51.725Z,2.80
2022-10-02T18:56:03.360Z,2.47
2022-10-02T19:01:11.448Z,2.35
2022-10-02T19:06:09.492Z,2.55
2022-10-02T19:10:54.847Z,2.63
2022-10-02T19:15:40.296Z,2.40
2022-10-02T19:20:38.670Z,2.42
2022-10-02T19:25:28.583Z,2.28
2022-10-02T19:30:26.459Z,2.08
2022-10-02T19:35:19.377Z,2.15
2022-10-02T19:40:10.078Z,2.50
2022-10-02T19:45:04.835Z,2.58
2022-10-02T19:49:52.087Z,4.28
2022-10-02T19:54:41.029Z,3.80
2022-10-02T19:59:29.732Z,4.50
2022-10-02T20:04:20.720Z,4.10
2022-10-02T20:09:14.842Z,4.13
2022-10-02T20:14:05.172Z,3.88
2022-10-02T20:18:52.434Z,5.10
2022-10-02T20:23:45.467Z,6.82
2022-10-02T20:28:37.729Z,8.50
2022-10-02T20:33:27.142Z,10.27
2022-10-02T20:38:21.342Z,11.10
2022-10-02T20:43:15.413Z,11.05
2022-10-02T20:49:03.140Z,25.85
2022-10-02T20:54:18.121Z,20.38
2022-10-02T20:59:40.509Z,13.45
2022-10-02T21:04:58.175Z,10.98
2022-10-02T21:10:10.235Z,10.35
2022-10-02T21:20:33.437Z,11.18
2022-10-02T21:26:00.238Z,7.75
2022-10-02T21:30:57.292Z,15.70
2022-10-02T21:35:49.051Z,19.73
2022-10-02T21:46:14.949Z,11.30
2022-10-02T21:51:43.269Z,8.05
2022-10-02T21:56:55.449Z,8.45
2022-10-02T22:07:00.438Z,7.00
2022-10-02T22:16:47.632Z,5.97
2022-10-02T22:21:57.012Z,4.30
2022-10-02T22:27:06.970Z,4.68
2022-10-02T22:32:17.738Z,4.47
2022-10-02T22:37:30.242Z,5.53
2022-10-02T22:42:23.431Z,5.75
2022-10-02T22:47:13.008Z,5.57
2022-10-02T22:52:08.251Z,4.50
2022-10-02T22:57:09.037Z,4.50
2022-10-02T23:01:59.479Z,4.72
2022-10-02T23:06:49.407Z,4.70
2022-10-02T23:11:43.084Z,4.55
2022-10-02T23:16:39.598Z,4.80
2022-10-02T23:21:32.905Z,4.30
2022-10-02T23:26:29.855Z,5.13
2022-10-02T23:31:23.983Z,4.05
2022-10-02T23:36:26.288Z,3.80
2022-10-02T23:41:31.615Z,3.58
2022-10-02T23:46:26.108Z,4.70
2022-10-02T23:51:28.162Z,3.50
2022-10-02T23:56:41.065Z,4.38
